Time;durP1;ratioP1;P1;durP2;ratioP2;P2;SDS_P1;SDS_P2;PMS_P1;PMS_P2;Temp;Humidity;BMP_temperature;BMP_pressure;BME280_temperature;BME280_humidity;BME280_pressure;Samples;Min_cycle;Max_cycle;Signal;HPM_P1;HPM_P2
2023/01/25 00:01:00;;;;;;;;;11.00;10.00;;;;;1.32;80.39;101899.22;5116941;28;8831;-60
2023/01/25 00:03:28;;;;;;;;;13.40;11.80;;;;;1.33;80.45;101907.94;5116792;28;8843;-58
2023/01/25 00:05:56;;;;;;;;;7.40;6.60;;;;;1.35;80.64;101891.28;5116743;28;8828;-60
2023/01/25 00:08:24;;;;;;;;;10.80;10.00;;;;;1.34;80.64;101901.78;5116827;28;8824;-60
2023/01/25 00:10:51;;;;;;;;;6.20;4.40;;;;;1.33;80.80;101898.31;5116678;28;8846;-60
2023/01/25 00:13:19;;;;;;;;;7.00;6.60;;;;;1.33;80.83;101898.31;5116781;28;8919;-60
2023/01/25 00:15:47;;;;;;;;;12.80;12.40;;;;;1.34;80.06;101901.78;5116656;28;8832;-60
2023/01/25 00:18:15;;;;;;;;;4.80;4.00;;;;;1.37;80.87;101886.88;5117129;28;8816;-60
2023/01/25 00:20:43;;;;;;;;;11.60;9.40;;;;;1.38;80.47;101888.63;5116789;28;8836;-60
2023/01/25 00:23:10;;;;;;;;;8.60;6.60;;;;;1.42;80.65;101877.22;5116326;28;8858;-60
2023/01/25 00:25:38;;;;;;;;;13.60;13.60;;;;;1.44;80.33;101872.81;5116220;28;8831;-60
2023/01/25 00:28:06;;;;;;;;;13.80;9.40;;;;;1.43;79.62;101871.06;5116332;28;9493;-60
2023/01/25 00:36:46;;;;;;;;;4.40;4.40;;;;;1.20;80.64;101869.59;5116529;28;8768;-60
2023/01/25 00:39:15;;;;;;;;;13.40;11.80;;;;;1.13;80.43;101866.16;5116299;28;8862;-60
2023/01/25 00:41:43;;;;;;;;;10.60;9.80;;;;;1.11;81.19;101869.69;5116324;28;8830;-60
2023/01/25 00:44:10;;;;;;;;;6.00;6.00;;;;;1.09;81.06;101863.59;5116075;28;8950;-61
2023/01/25 00:46:38;;;;;;;;;5.60;5.20;;;;;1.05;80.90;101862.75;5116235;28;8816;-60
2023/01/25 00:49:06;;;;;;;;;10.00;8.80;;;;;1.04;80.59;101855.78;5116127;28;8835;-60
2023/01/25 00:51:34;;;;;;;;;14.60;12.40;;;;;1.04;81.39;101852.28;5115962;28;8859;-59
2023/01/25 00:54:01;;;;;;;;;12.80;12.40;;;;;1.02;80.67;101854.94;5116295;28;8820;-60
2023/01/25 00:56:29;;;;;;;;;11.80;11.60;;;;;1.01;80.96;101855.78;5115941;28;9260;-59
2023/01/25 00:58:56;;;;;;;;;11.00;8.80;;;;;1.03;81.17;101847.91;5116181;28;8824;-60
2023/01/25 01:01:24;;;;;;;;;3.00;3.00;;;;;1.03;81.23;101847.91;5116402;28;8827;-60
2023/01/25 01:03:53;;;;;;;;;6.60;6.60;;;;;1.04;81.11;101834.81;5116116;28;8808;-60
2023/01/25 01:06:20;;;;;;;;;11.20;10.20;;;;;1.07;80.75;101833.91;5116141;28;8824;-56
2023/01/25 01:08:48;;;;;;;;;10.40;8.20;;;;;1.11;80.45;101831.22;5116173;28;8815;-60
2023/01/25 01:11:15;;;;;;;;;12.40;12.00;;;;;1.13;80.76;101839.09;5115732;28;8828;-58
2023/01/25 01:13:43;;;;;;;;;8.60;7.40;;;;;1.11;80.69;101828.59;5116056;28;8835;-59
2023/01/25 01:16:11;;;;;;;;;13.00;11.80;;;;;1.12;80.65;101838.22;5115718;28;8824;-58
2023/01/25 01:18:39;;;;;;;;;11.00;9.00;;;;;1.15;80.31;101840.78;5116021;28;8820;-58
2023/01/25 01:21:07;;;;;;;;;12.60;12.00;;;;;1.18;80.37;101832.00;5116189;28;8866;-58
2023/01/25 01:23:35;;;;;;;;;4.40;1.80;;;;;1.19;80.40;101833.75;5116245;28;8846;-59
2023/01/25 01:26:03;;;;;;;;;9.80;9.80;;;;;1.21;80.85;101832.00;5116028;28;8820;-59
2023/01/25 01:28:31;;;;;;;;;13.40;12.00;;;;;1.26;80.38;101838.03;5116557;28;8835;-60
2023/01/25 01:30:59;;;;;;;;;6.00;5.20;;;;;1.29;80.30;101830.16;5116275;28;8808;-60
2023/01/25 01:33:26;;;;;;;;;11.20;9.00;;;;;1.30;80.71;101832.75;5115852;28;8823;-60
2023/01/25 01:35:54;;;;;;;;;7.80;7.00;;;;;1.33;80.53;101832.72;5116019;28;8912;-59
2023/01/25 01:38:21;;;;;;;;;12.80;10.80;;;;;1.34;80.39;101834.47;5116244;28;8897;-59
2023/01/25 01:40:50;;;;;;;;;11.20;9.60;;;;;1.32;79.88;101838.88;5119302;28;9726;-58
2023/01/25 01:43:17;;;;;;;;;8.20;6.40;;;;;1.31;80.44;101831.84;5120133;28;8843;-60
2023/01/25 01:45:45;;;;;;;;;3.00;3.00;;;;;1.31;80.25;101838.88;5120473;28;9639;-58
2023/01/25 01:48:13;;;;;;;;;9.00;8.80;;;;;1.31;80.48;101833.63;5119839;28;8819;-60
2023/01/25 01:50:40;;;;;;;;;9.80;8.40;;;;;1.29;80.48;101835.41;5120097;28;8828;-59
2023/01/25 01:53:09;;;;;;;;;14.60;9.60;;;;;1.31;80.00;101839.72;5119911;28;8831;-60
2023/01/25 01:55:36;;;;;;;;;7.40;7.00;;;;;1.33;80.83;101848.47;5119526;28;8812;-58
2023/01/25 01:58:04;;;;;;;;;13.80;11.20;;;;;1.35;80.59;101837.94;5119689;28;8828;-58
2023/01/25 02:00:32;;;;;;;;;6.00;6.00;;;;;1.32;80.74;101832.72;5119764;28;8815;-60
2023/01/25 02:02:59;;;;;;;;;14.20;12.60;;;;;1.30;80.64;101830.13;5119706;28;8816;-58
2023/01/25 02:05:27;;;;;;;;;8.60;7.40;;;;;1.27;80.33;101829.28;5120068;28;8812;-58
2023/01/25 02:07:55;;;;;;;;;9.60;8.40;;;;;1.22;80.98;101831.97;5119488;28;8841;-60
2023/01/25 02:10:23;;;;;;;;;10.20;9.80;;;;;1.17;80.91;101827.66;5119321;28;8850;-57
2023/01/25 02:12:51;;;;;;;;;6.60;6.60;;;;;1.14;80.85;101828.56;5119664;28;8838;-60
2023/01/25 02:15:18;;;;;;;;;9.20;7.40;;;;;1.13;80.84;101834.69;5119383;28;8824;-59
2023/01/25 02:17:46;;;;;;;;;11.20;9.60;;;;;1.12;81.03;101838.22;5119338;28;8816;-59
2023/01/25 02:20:14;;;;;;;;;4.80;3.40;;;;;1.10;80.72;101831.25;5119415;28;8916;-59
2023/01/25 02:22:42;;;;;;;;;10.40;9.80;;;;;1.06;80.81;101830.41;5119152;28;8838;-59
2023/01/25 02:25:09;;;;;;;;;9.40;9.40;;;;;1.02;80.53;101833.97;5119341;28;8924;-60
2023/01/25 02:27:37;;;;;;;;;12.00;12.00;;;;;1.04;81.16;101834.81;5119163;28;8943;-59
2023/01/25 02:30:07;;;;;;;;;9.80;9.40;;;;;1.09;81.41;101830.38;5119138;28;8836;-59
2023/01/25 02:32:35;;;;;;;;;15.60;15.20;;;;;1.11;81.37;101836.47;5119009;28;9521;-57
2023/01/25 02:35:02;;;;;;;;;6.80;6.80;;;;;1.08;80.60;101826.00;5118990;28;8815;-60
2023/01/25 02:37:30;;;;;;;;;7.20;6.20;;;;;1.03;81.06;101843.56;5119131;28;8843;-60
2023/01/25 02:39:58;;;;;;;;;3.00;3.00;;;;;0.98;80.82;101834.88;5118739;28;8828;-60
2023/01/25 02:42:25;;;;;;;;;10.20;8.20;;;;;0.95;80.95;101836.66;5118984;28;8831;-59
2023/01/25 02:44:53;;;;;;;;;7.00;7.00;;;;;0.93;81.11;101831.41;5118558;28;8832;-60
2023/01/25 02:47:20;;;;;;;;;8.40;6.00;;;;;0.94;80.69;101832.28;5118718;28;8856;-60
2023/01/25 02:49:48;;;;;;;;;5.20;3.40;;;;;0.94;81.39;101837.53;5118473;28;8830;-58
2023/01/25 02:52:16;;;;;;;;;9.60;9.60;;;;;0.93;80.81;101823.53;5118706;28;8878;-60
2023/01/25 02:54:44;;;;;;;;;6.60;5.20;;;;;0.95;81.01;101829.66;5119037;28;9528;-58
2023/01/25 02:57:12;;;;;;;;;6.20;5.20;;;;;0.99;81.24;101822.63;5118762;28;8951;-58
2023/01/25 02:59:40;;;;;;;;;4.00;3.00;;;;;1.02;81.73;101819.97;5118594;28;9511;-58
2023/01/25 03:02:07;;;;;;;;;4.40;4.00;;;;;1.06;80.79;101811.19;5118311;28;9600;-58
2023/01/25 03:04:35;;;;;;;;;7.20;6.60;;;;;1.07;81.46;101812.94;5118594;28;8835;-58
2023/01/25 03:07:03;;;;;;;;;8.00;5.20;;;;;1.07;81.23;101810.31;5118299;28;9639;-59
2023/01/25 03:09:30;;;;;;;;;9.80;9.00;;;;;1.08;80.98;101818.13;5118229;28;8819;-58
2023/01/25 03:11:58;;;;;;;;;7.80;7.80;;;;;1.10;80.88;101818.13;5117835;28;8839;-58
2023/01/25 03:14:26;;;;;;;;;10.80;10.00;;;;;1.12;81.29;101814.59;5118065;28;8912;-58
2023/01/25 03:16:54;;;;;;;;;4.00;3.20;;;;;1.12;81.01;101809.34;5117864;28;8832;-61
2023/01/25 03:19:21;;;;;;;;;12.60;9.80;;;;;1.15;80.69;101804.06;5118182;28;9478;-60
2023/01/25 03:21:49;;;;;;;;;10.00;8.60;;;;;1.17;81.02;101804.94;5118185;28;8974;-58
2023/01/25 03:24:17;;;;;;;;;9.60;7.80;;;;;1.17;81.29;101802.31;5118262;28;8816;-60
2023/01/25 03:29:30;;;;;;;;;10.00;10.00;;;;;1.17;80.98;101798.81;5112310;28;8831;-60
2023/01/25 03:31:57;;;;;;;;;13.00;12.20;;;;;1.19;80.74;101802.28;5117857;28;8816;-59
2023/01/25 03:34:25;;;;;;;;;8.80;8.80;;;;;1.22;81.12;101804.88;5117470;28;8911;-59
2023/01/25 03:36:53;;;;;;;;;12.60;12.20;;;;;1.26;81.17;101796.94;5117010;28;8869;-60
2023/01/25 03:39:20;;;;;;;;;7.40;6.60;;;;;1.26;81.14;101794.31;5117732;28;9493;-60
2023/01/25 03:41:49;;;;;;;;;11.40;11.20;;;;;1.28;81.30;101779.44;5117443;28;8948;-58
2023/01/25 03:44:16;;;;;;;;;13.00;11.60;;;;;1.27;81.10;101784.69;5116994;28;8917;-59
2023/01/25 03:46:44;;;;;;;;;12.60;10.80;;;;;1.26;81.27;101778.59;5117629;28;8831;-60
2023/01/25 03:49:12;;;;;;;;;6.60;6.60;;;;;1.22;80.90;101774.25;5117410;28;8880;-60
2023/01/25 03:51:39;;;;;;;;;15.80;12.60;;;;;1.17;81.46;101770.84;5117576;28;8839;-60
2023/01/25 03:54:09;;;;;;;;;9.60;7.40;;;;;1.14;80.75;101770.84;5117348;28;8882;-60
2023/01/25 03:56:37;;;;;;;;;13.80;9.60;;;;;1.06;81.77;101759.59;5116890;28;8811;-60
2023/01/25 03:59:04;;;;;;;;;9.20;8.00;;;;;0.97;81.17;101758.81;5117364;28;8808;-60
2023/01/25 04:01:32;;;;;;;;;12.20;12.20;;;;;0.89;81.78;101755.44;5116544;28;8840;-59
2023/01/25 04:03:59;;;;;;;;;10.80;9.20;;;;;0.82;81.26;101759.88;5116720;28;8812;-59
2023/01/25 04:06:28;;;;;;;;;15.00;12.40;;;;;0.79;81.42;101749.44;5117219;28;8824;-58
2023/01/25 04:08:56;;;;;;;;;10.60;10.40;;;;;0.81;81.82;101747.66;5096418;28;8830;-58
2023/01/25 04:11:23;;;;;;;;;9.80;9.20;;;;;0.85;82.12;101743.25;5096798;28;8830;-60
2023/01/25 04:13:51;;;;;;;;;14.60;11.00;;;;;0.86;81.59;101734.50;5096402;28;8957;-60
2023/01/25 04:16:19;;;;;;;;;12.20;11.80;;;;;0.89;81.87;101742.31;5096420;28;8818;-60
2023/01/25 04:18:48;;;;;;;;;8.00;7.60;;;;;0.89;81.77;101732.72;5115640;28;8804;-60
2023/01/25 04:21:16;;;;;;;;;2.20;0.00;;;;;0.87;81.71;101737.13;5117173;28;8820;-60
2023/01/25 04:23:43;;;;;;;;;6.80;6.40;;;;;0.84;81.53;101736.28;5116757;28;8816;-60
2023/01/25 04:26:11;;;;;;;;;7.00;6.80;;;;;0.81;81.85;101737.19;5116973;28;8908;-60
2023/01/25 04:28:42;;;;;;;;;7.20;6.40;;;;;0.79;81.56;101735.44;5116386;28;8800;-60
2023/01/25 04:31:10;;;;;;;;;9.00;7.40;;;;;0.77;81.48;101734.63;5116845;28;8831;-59
2023/01/25 04:33:37;;;;;;;;;9.40;5.60;;;;;0.74;81.79;101726.75;5116511;28;8828;-60
2023/01/25 04:36:05;;;;;;;;;10.20;9.60;;;;;0.71;81.87;101732.91;5116719;28;8847;-60
2023/01/25 04:38:32;;;;;;;;;8.60;6.80;;;;;0.69;81.84;101721.56;5116532;28;8831;-60
2023/01/25 04:41:00;;;;;;;;;11.00;9.40;;;;;0.69;82.17;101721.56;5116774;28;8820;-59
2023/01/25 04:43:29;;;;;;;;;6.80;6.00;;;;;0.64;82.13;101712.03;5116769;28;8815;-59
2023/01/25 04:45:56;;;;;;;;;5.20;5.20;;;;;0.56;82.35;101709.53;5116631;28;9490;-58
2023/01/25 04:48:24;;;;;;;;;7.00;6.00;;;;;0.52;82.38;101710.41;5116170;28;8891;-60
2023/01/25 04:50:52;;;;;;;;;8.00;7.00;;;;;0.49;81.57;101707.84;5114767;28;8816;-57
2023/01/25 04:53:19;;;;;;;;;4.00;4.00;;;;;0.47;81.99;101706.97;5115294;28;8830;-57
2023/01/25 04:55:47;;;;;;;;;3.40;3.00;;;;;0.45;82.08;101715.72;5115249;28;8893;-59
2023/01/25 04:58:15;;;;;;;;;7.80;6.00;;;;;0.44;82.04;101712.25;5115712;28;8836;-59
2023/01/25 05:00:43;;;;;;;;;6.80;6.00;;;;;0.44;82.28;101704.41;5115389;28;8848;-58
2023/01/25 05:03:11;;;;;;;;;7.80;7.40;;;;;0.45;82.23;101702.63;5114823;28;8850;-57
2023/01/25 05:05:38;;;;;;;;;3.40;3.40;;;;;0.47;82.27;101704.34;5115512;28;8816;-59
2023/01/25 05:08:06;;;;;;;;;9.60;9.00;;;;;0.49;82.15;101700.00;5114600;28;8814;-58
2023/01/25 05:10:34;;;;;;;;;3.00;3.00;;;;;0.51;82.41;101700.84;5115546;28;9738;-57
2023/01/25 05:13:01;;;;;;;;;6.20;6.00;;;;;0.53;82.92;101706.06;5116105;28;8835;-58
2023/01/25 05:15:29;;;;;;;;;4.00;3.00;;;;;0.51;82.01;101702.56;5120212;28;8851;-60
2023/01/25 05:17:57;;;;;;;;;4.40;4.20;;;;;0.48;82.02;101705.22;5120170;28;8839;-59
2023/01/25 05:20:24;;;;;;;;;4.00;3.00;;;;;0.45;82.65;101703.50;5099876;28;9510;-58
2023/01/25 05:22:52;;;;;;;;;4.00;4.00;;;;;0.41;82.27;101701.81;5099737;28;8833;-59
2023/01/25 05:28:05;;;;;;;;;6.60;5.20;;;;;0.38;82.07;101706.22;5100302;28;8842;-60
2023/01/25 05:30:33;;;;;;;;;4.40;3.00;;;;;0.38;82.61;101693.13;5120369;28;8820;-58
2023/01/25 05:33:01;;;;;;;;;5.20;4.60;;;;;0.40;82.35;101702.69;5120270;28;9482;-57
2023/01/25 05:35:28;;;;;;;;;6.60;5.20;;;;;0.41;82.11;101693.97;5119414;28;8835;-58
2023/01/25 05:37:56;;;;;;;;;3.60;3.00;;;;;0.42;82.68;101706.16;5118722;28;8828;-60
2023/01/25 05:40:24;;;;;;;;;5.20;5.20;;;;;0.44;82.77;101712.25;5119284;28;8836;-59
2023/01/25 05:42:52;;;;;;;;;3.40;3.40;;;;;0.45;82.42;101706.13;5119551;28;8823;-58
2023/01/25 05:45:19;;;;;;;;;3.60;3.60;;;;;0.49;82.28;101701.72;5119213;28;8820;-60
2023/01/25 05:47:47;;;;;;;;;5.20;5.20;;;;;0.50;82.06;101708.69;5119049;28;8844;-60
2023/01/25 05:50:15;;;;;;;;;5.20;4.20;;;;;0.51;82.75;101708.69;5117977;28;8812;-60
2023/01/25 05:52:43;;;;;;;;;6.40;3.00;;;;;0.50;82.18;101713.94;5118801;28;8812;-59
2023/01/25 05:55:11;;;;;;;;;6.00;5.40;;;;;0.49;81.84;101707.84;5118336;28;9551;-58
2023/01/25 05:57:41;;;;;;;;;3.80;3.80;;;;;0.46;82.54;101701.78;5118022;28;8831;-59
2023/01/25 06:00:09;;;;;;;;;8.80;7.80;;;;;0.42;82.57;101700.94;5117846;28;8816;-58
2023/01/25 06:02:37;;;;;;;;;1.40;1.40;;;;;0.39;82.64;101708.81;5118246;28;8812;-59
2023/01/25 06:05:04;;;;;;;;;4.00;3.00;;;;;0.41;82.25;101701.81;5118179;28;8824;-60
2023/01/25 06:07:35;;;;;;;;;7.20;6.00;;;;;0.45;82.85;101697.38;5117421;28;8862;-58
2023/01/25 06:10:02;;;;;;;;;5.80;4.00;;;;;0.46;82.02;101697.38;5117081;28;9473;-59
2023/01/25 06:12:30;;;;;;;;;3.40;3.40;;;;;0.50;82.68;101699.09;5118443;28;8831;-61
2023/01/25 06:14:58;;;;;;;;;2.20;1.00;;;;;0.53;81.72;101698.19;5118352;28;8839;-58
2023/01/25 06:17:25;;;;;;;;;6.00;4.00;;;;;0.58;82.69;101693.75;5117851;28;8900;-60
2023/01/25 06:19:53;;;;;;;;;6.00;6.00;;;;;0.61;82.30;101693.75;5117794;28;8848;-59
2023/01/25 06:22:21;;;;;;;;;3.40;3.40;;;;;0.61;82.20;101691.13;5116972;28;8848;-61
2023/01/25 06:24:49;;;;;;;;;6.40;6.20;;;;;0.64;82.33;101694.56;5116565;28;8815;-59
2023/01/25 06:27:16;;;;;;;;;3.80;3.80;;;;;0.66;81.94;101684.06;5115931;28;9602;-59
2023/01/25 06:29:44;;;;;;;;;5.40;4.00;;;;;0.68;81.93;101698.03;5116021;28;8839;-60
2023/01/25 06:32:13;;;;;;;;;0.80;0.60;;;;;0.68;81.79;101700.66;5116145;28;8838;-61
2023/01/25 06:34:41;;;;;;;;;6.80;6.80;;;;;0.63;82.00;101695.44;5115916;28;8956;-60
2023/01/25 06:37:09;;;;;;;;;6.00;3.80;;;;;0.60;81.55;101705.97;5114854;28;8820;-61
2023/01/25 06:39:37;;;;;;;;;1.80;1.80;;;;;0.55;82.07;101697.28;5114276;28;8851;-60
2023/01/25 06:42:04;;;;;;;;;4.40;4.20;;;;;0.49;82.67;101697.38;5113530;28;8864;-59
2023/01/25 06:44:33;;;;;;;;;4.00;3.80;;;;;0.46;82.79;101700.00;5114122;28;8847;-59
2023/01/25 06:47:01;;;;;;;;;3.20;3.00;;;;;0.46;82.12;101700.00;5113807;28;8965;-59
2023/01/25 06:49:29;;;;;;;;;5.40;5.20;;;;;0.47;82.61;101701.72;5113862;28;8835;-58
2023/01/25 06:51:56;;;;;;;;;4.80;4.00;;;;;0.50;82.75;101709.56;5114503;28;8855;-58
2023/01/25 06:54:24;;;;;;;;;6.20;6.00;;;;;0.52;82.61;101704.28;5112948;28;8860;-60
2023/01/25 06:56:52;;;;;;;;;6.40;5.40;;;;;0.56;82.25;101706.00;5114067;28;8865;-59
2023/01/25 06:59:20;;;;;;;;;5.80;4.20;;;;;0.57;82.18;101697.28;5112911;28;8828;-60
2023/01/25 07:01:48;;;;;;;;;4.40;4.00;;;;;0.58;82.11;101699.88;5112531;28;8870;-61
2023/01/25 07:04:16;;;;;;;;;9.40;6.00;;;;;0.57;81.90;101695.53;5112504;28;9587;-62
2023/01/25 07:06:44;;;;;;;;;4.00;4.00;;;;;0.61;82.05;101710.31;5112122;28;8835;-61
2023/01/25 07:09:13;;;;;;;;;6.00;3.80;;;;;0.63;82.09;101697.19;5112054;28;8866;-61
2023/01/25 07:11:40;;;;;;;;;4.00;3.40;;;;;0.64;82.58;101696.31;5111353;28;8857;-59
2023/01/25 07:14:08;;;;;;;;;5.20;5.20;;;;;0.62;81.95;101696.31;5112595;28;8846;-61
2023/01/25 07:16:37;;;;;;;;;3.20;3.20;;;;;0.60;82.14;101695.47;5112954;28;8848;-61
2023/01/25 07:19:05;;;;;;;;;5.60;5.20;;;;;0.58;82.16;101699.88;5113739;28;8819;-61
2023/01/25 07:21:33;;;;;;;;;0.40;0.40;;;;;0.56;82.17;101696.41;5113754;28;8920;-61
2023/01/25 07:24:01;;;;;;;;;7.60;7.60;;;;;0.56;81.95;101699.03;5113886;28;8873;-61
2023/01/25 07:26:29;;;;;;;;;1.40;1.40;;;;;0.54;82.67;101690.31;5114238;28;8845;-61
2023/01/25 07:28:57;;;;;;;;;4.40;4.40;;;;;0.54;81.99;101689.44;5114983;28;8896;-61
2023/01/25 07:31:25;;;;;;;;;5.40;5.40;;;;;0.53;81.85;101683.34;5115050;28;8868;-61
2023/01/25 07:33:53;;;;;;;;;0.80;0.00;;;;;0.52;82.20;101685.97;5115030;28;8908;-61
2023/01/25 07:36:21;;;;;;;;;8.60;5.80;;;;;0.50;82.38;101685.13;5113809;28;8843;-61
2023/01/25 07:38:49;;;;;;;;;8.40;6.40;;;;;0.46;82.78;101686.06;5113357;28;8931;-59
2023/01/25 07:41:17;;;;;;;;;7.60;6.00;;;;;0.42;82.65;101689.56;5113562;28;8835;-59
2023/01/25 07:43:44;;;;;;;;;4.60;4.60;;;;;0.39;82.28;101682.59;5113843;28;9579;-59
2023/01/25 07:46:12;;;;;;;;;8.20;7.00;;;;;0.39;82.71;101677.38;5113736;28;8832;-59
2023/01/25 07:48:40;;;;;;;;;3.00;1.40;;;;;0.37;82.88;101680.88;5113111;28;8840;-59
2023/01/25 07:51:21;;;;;;;;;3.60;2.80;;;;;0.38;82.85;101682.66;5112460;28;9217;-60
2023/01/25 07:53:50;;;;;;;;;5.60;3.60;;;;;0.39;83.00;101680.00;5112066;28;8828;-60
2023/01/25 07:56:18;;;;;;;;;7.40;6.20;;;;;0.40;82.39;101676.47;5113362;28;8830;-59
2023/01/25 07:58:45;;;;;;;;;1.80;1.40;;;;;0.41;83.01;101680.88;5114342;28;8966;-60
2023/01/25 08:01:13;;;;;;;;;9.00;6.60;;;;;0.43;82.79;101676.47;5114605;28;8852;-61
2023/01/25 08:03:42;;;;;;;;;9.00;7.00;;;;;0.47;82.49;101678.16;5113412;28;8912;-61
2023/01/25 08:06:10;;;;;;;;;9.20;9.20;;;;;0.52;83.03;101678.97;5114069;28;8968;-61
2023/01/25 08:08:39;;;;;;;;;4.00;4.00;;;;;0.57;82.32;101685.03;5113259;28;9517;-61
2023/01/25 08:11:07;;;;;;;;;4.80;4.80;;;;;0.58;82.35;101673.69;5112941;28;9547;-61
2023/01/25 08:13:35;;;;;;;;;12.20;7.80;;;;;0.59;83.01;101677.16;5112786;28;8852;-61
2023/01/25 08:16:03;;;;;;;;;9.00;4.80;;;;;0.58;82.50;101680.66;5112455;28;8828;-61
2023/01/25 08:18:31;;;;;;;;;6.00;4.40;;;;;0.54;82.06;101674.59;5113487;28;8972;-61
2023/01/25 08:21:02;;;;;;;;;9.20;6.00;;;;;0.50;82.23;101675.53;5113425;28;8991;-61
2023/01/25 08:23:30;;;;;;;;;1.40;0.80;;;;;0.49;82.61;101675.53;5112248;28;8835;-61
2023/01/25 08:25:58;;;;;;;;;4.00;4.00;;;;;0.47;82.36;101672.06;5111504;28;8828;-61
2023/01/25 08:28:26;;;;;;;;;9.60;9.20;;;;;0.45;82.80;101669.44;5111097;28;8870;-61
2023/01/25 08:30:54;;;;;;;;;10.00;7.40;;;;;0.47;82.27;101666.81;5111133;28;8824;-60
2023/01/25 08:33:24;;;;;;;;;7.00;6.20;;;;;0.48;82.23;101669.41;5111469;28;8846;-61
2023/01/25 08:35:52;;;;;;;;;4.80;4.40;;;;;0.49;82.37;101663.31;5112412;28;8843;-61
2023/01/25 08:38:20;;;;;;;;;0.60;0.40;;;;;0.51;82.76;101664.16;5110846;28;8847;-61
2023/01/25 08:40:48;;;;;;;;;6.00;5.20;;;;;0.52;82.84;101663.25;5112926;28;8832;-61
2023/01/25 08:43:15;;;;;;;;;6.60;6.00;;;;;0.52;82.14;101659.75;5112609;28;8978;-61
2023/01/25 08:45:44;;;;;;;;;4.00;4.00;;;;;0.54;82.29;101655.38;5113130;28;8905;-59
2023/01/25 08:48:14;;;;;;;;;4.00;3.00;;;;;0.56;83.05;101657.13;5113006;28;8842;-61
2023/01/25 08:50:42;;;;;;;;;6.00;6.00;;;;;0.57;82.85;101658.84;5111858;28;8848;-61
2023/01/25 08:53:10;;;;;;;;;6.20;6.00;;;;;0.58;82.69;101655.34;5110334;28;8851;-61
2023/01/25 08:55:39;;;;;;;;;7.00;7.00;;;;;0.60;83.00;101664.03;5110061;28;8828;-61
2023/01/25 08:58:09;;;;;;;;;3.80;3.80;;;;;0.64;82.18;101651.75;5110291;28;8832;-62
2023/01/25 09:00:37;;;;;;;;;6.60;4.00;;;;;0.65;82.95;101649.13;5110715;28;8839;-58
2023/01/25 09:03:05;;;;;;;;;6.00;5.60;;;;;0.70;82.30;101646.44;5110475;28;8839;-59
2023/01/25 09:05:33;;;;;;;;;8.20;4.80;;;;;0.73;82.81;101646.41;5112650;28;9107;-61
2023/01/25 09:08:01;;;;;;;;;4.80;4.80;;;;;0.75;82.00;101640.25;5112878;28;9324;-61
2023/01/25 09:10:30;;;;;;;;;1.00;0.40;;;;;0.76;82.22;101641.13;5112458;28;8824;-61
2023/01/25 09:12:58;;;;;;;;;4.00;4.00;;;;;0.75;82.06;101642.88;5112566;28;8831;-62
2023/01/25 09:15:26;;;;;;;;;7.40;7.00;;;;;0.75;82.02;101642.00;5113332;28;9631;-61
2023/01/25 09:17:54;;;;;;;;;3.60;3.00;;;;;0.74;81.61;101630.66;5114097;28;8824;-62
2023/01/25 09:20:21;;;;;;;;;6.00;4.40;;;;;0.74;82.14;101630.66;5113595;28;8832;-62
2023/01/25 09:22:50;;;;;;;;;10.00;6.80;;;;;0.75;81.86;101631.50;5114462;28;8832;-60
2023/01/25 09:25:18;;;;;;;;;1.00;1.00;;;;;0.74;81.69;101625.41;5113832;28;8827;-61
2023/01/25 09:27:46;;;;;;;;;5.20;4.00;;;;;0.75;81.85;101621.91;5113842;28;8835;-61
2023/01/25 09:30:14;;;;;;;;;4.80;4.80;;;;;0.76;82.16;101615.78;5113513;28;8835;-61
2023/01/25 09:32:45;;;;;;;;;4.20;4.20;;;;;0.77;82.07;101616.66;5112699;28;8894;-61
2023/01/25 09:35:14;;;;;;;;;4.40;4.00;;;;;0.80;82.52;101612.25;5112285;28;8828;-61
2023/01/25 09:37:42;;;;;;;;;2.80;1.80;;;;;0.84;82.40;101610.44;5112067;28;8843;-61
2023/01/25 09:40:10;;;;;;;;;1.40;1.40;;;;;0.83;82.02;101617.44;5112167;28;8827;-59
2023/01/25 09:42:38;;;;;;;;;7.00;6.00;;;;;0.85;82.74;101612.19;5111309;28;8982;-62
2023/01/25 09:45:06;;;;;;;;;4.40;3.80;;;;;0.85;81.93;101606.94;5111769;28;8920;-59
2023/01/25 09:47:35;;;;;;;;;6.60;5.20;;;;;0.84;81.83;101607.81;5111164;28;9006;-59
2023/01/25 09:50:03;;;;;;;;;6.00;5.20;;;;;0.81;82.09;101610.47;5113326;28;8838;-58
2023/01/25 09:52:31;;;;;;;;;4.00;3.40;;;;;0.81;82.41;101606.09;5112524;28;8832;-59
2023/01/25 09:54:59;;;;;;;;;4.40;4.40;;;;;0.79;82.47;101607.00;5112444;28;8823;-59
2023/01/25 09:57:27;;;;;;;;;3.40;3.00;;;;;0.80;82.02;101601.75;5112925;28;8831;-59
2023/01/25 09:59:56;;;;;;;;;10.40;8.20;;;;;0.79;82.40;101599.16;5112712;28;8820;-59
2023/01/25 10:02:24;;;;;;;;;6.00;6.00;;;;;0.78;81.87;101600.88;5116695;28;8916;-59
2023/01/25 10:04:52;;;;;;;;;6.00;4.00;;;;;0.78;81.96;101600.88;5115615;28;8927;-59
2023/01/25 10:07:20;;;;;;;;;9.00;6.00;;;;;0.82;82.61;101597.34;5112888;28;8982;-61
2023/01/25 10:09:48;;;;;;;;;5.20;3.80;;;;;0.82;81.86;101586.88;5112795;28;9525;-61
2023/01/25 10:12:17;;;;;;;;;5.20;5.20;;;;;0.83;82.20;101580.72;5112714;28;8875;-61
2023/01/25 10:14:45;;;;;;;;;4.40;4.00;;;;;0.86;82.13;101590.31;5112221;28;8851;-61
2023/01/25 10:17:12;;;;;;;;;3.80;3.60;;;;;0.85;82.22;101586.81;5112529;28;8965;-61
2023/01/25 10:19:40;;;;;;;;;6.00;4.80;;;;;0.83;81.71;101588.59;5113727;28;8840;-60
2023/01/25 10:22:08;;;;;;;;;3.40;2.60;;;;;0.81;81.96;101587.75;5114837;28;8839;-59
2023/01/25 10:24:36;;;;;;;;;7.40;6.20;;;;;0.82;82.41;101588.59;5116050;28;9564;-60
2023/01/25 10:27:04;;;;;;;;;8.20;7.00;;;;;0.81;81.95;101576.38;5116245;28;8823;-61
2023/01/25 10:29:32;;;;;;;;;4.00;4.00;;;;;0.81;82.34;101581.63;5116717;28;9551;-61
2023/01/25 10:32:00;;;;;;;;;6.60;4.80;;;;;0.86;81.69;101564.94;5113614;28;8823;-59
2023/01/25 10:34:28;;;;;;;;;4.40;3.80;;;;;0.91;82.29;101570.16;5113264;28;8835;-60
2023/01/25 10:36:57;;;;;;;;;6.00;4.40;;;;;0.93;82.03;101569.22;5113241;28;8835;-61
2023/01/25 10:39:24;;;;;;;;;5.20;4.40;;;;;0.92;82.24;101566.63;5113832;28;8846;-60
2023/01/25 10:41:52;;;;;;;;;7.20;7.20;;;;;0.91;82.55;101565.75;5114477;28;9517;-59
2023/01/25 10:44:24;;;;;;;;;3.40;3.20;;;;;0.89;81.74;101546.56;5114810;28;8832;-62
2023/01/25 10:46:51;;;;;;;;;4.20;3.80;;;;;0.90;82.16;101553.53;5115229;28;8847;-60
2023/01/25 10:49:20;;;;;;;;;6.80;6.80;;;;;0.92;82.23;101550.91;5114680;28;8840;-59
2023/01/25 10:51:48;;;;;;;;;5.20;3.00;;;;;0.93;81.70;101545.63;5114190;28;8856;-60
2023/01/25 10:54:16;;;;;;;;;6.60;5.60;;;;;0.93;81.75;101545.63;5113549;28;8843;-59
2023/01/25 10:56:44;;;;;;;;;4.60;3.20;;;;;0.91;82.33;101546.56;5114027;28;8835;-61
2023/01/25 10:59:11;;;;;;;;;1.00;1.00;;;;;0.91;81.87;101543.94;5113535;28;9532;-61
2023/01/25 11:01:40;;;;;;;;;3.20;2.60;;;;;0.90;81.63;101545.69;5113977;28;8842;-61
2023/01/25 11:04:08;;;;;;;;;5.20;4.80;;;;;0.83;81.73;101525.69;5112777;28;8823;-61
2023/01/25 11:06:36;;;;;;;;;4.00;3.80;;;;;0.79;81.89;101529.25;5112560;28;8925;-62
2023/01/25 11:09:04;;;;;;;;;8.00;4.40;;;;;0.76;81.72;101516.19;5113609;28;8843;-61
2023/01/25 11:11:32;;;;;;;;;4.00;4.00;;;;;0.74;81.99;101517.06;5112846;28;8816;-61
2023/01/25 11:14:02;;;;;;;;;5.20;4.80;;;;;0.76;81.88;101517.94;5111867;28;8852;-60
2023/01/25 11:16:30;;;;;;;;;7.80;5.60;;;;;0.78;82.14;101522.25;5112827;28;8840;-59
2023/01/25 11:18:58;;;;;;;;;6.80;6.80;;;;;0.81;82.61;101511.75;5113616;28;8874;-60
2023/01/25 11:21:25;;;;;;;;;0.40;0.40;;;;;0.83;82.07;101514.34;5114564;28;9618;-59
2023/01/25 11:23:53;;;;;;;;;3.80;2.60;;;;;0.84;82.09;101509.06;5113151;28;8835;-59
2023/01/25 11:26:21;;;;;;;;;8.60;6.60;;;;;0.84;82.14;101506.44;5112288;28;8842;-59
2023/01/25 11:28:49;;;;;;;;;10.00;8.00;;;;;0.79;82.50;101494.28;5112591;28;8843;-60
2023/01/25 11:31:17;;;;;;;;;6.80;6.80;;;;;0.77;82.33;101493.47;5112244;28;8843;-58
2023/01/25 11:33:46;;;;;;;;;5.20;4.40;;;;;0.75;82.76;101490.84;5111604;28;8877;-59
2023/01/25 11:36:14;;;;;;;;;7.80;5.40;;;;;0.77;82.42;101485.59;5110055;28;8924;-60
2023/01/25 11:38:43;;;;;;;;;6.80;4.80;;;;;0.80;82.78;101486.41;5110281;28;8840;-59
2023/01/25 11:41:11;;;;;;;;;7.00;6.40;;;;;0.80;82.73;101469.81;5111099;28;8950;-59
2023/01/25 11:43:39;;;;;;;;;9.80;7.40;;;;;0.80;82.22;101470.69;5111539;28;8823;-59
2023/01/25 11:46:07;;;;;;;;;9.40;9.00;;;;;0.80;82.53;101465.44;5111759;28;8836;-59
2023/01/25 11:48:35;;;;;;;;;9.20;8.20;;;;;0.80;82.44;101441.84;5112706;28;8875;-59
2023/01/25 11:51:03;;;;;;;;;12.20;8.40;;;;;0.82;82.38;101434.81;5113007;28;8859;-59
2023/01/25 11:53:31;;;;;;;;;3.00;3.00;;;;;0.85;81.88;101432.16;5112889;28;8828;-59